Time;durP1;ratioP1;P1;durP2;ratioP2;P2;SDS_P1;SDS_P2;PMS_P1;PMS_P2;Temp;Humidity;BMP_temperature;BMP_pressure;BME280_temperature;BME280_humidity;BME280_pressure;Samples;Min_cycle;Max_cycle;Signal;HPM_P1;HPM_P2
2022/05/31 00:01:17;;;;;;;9.90;8.02;;;;;;;-145.45;100.00;62759.84;5328662;27;20099;-84
2022/05/31 00:03:48;;;;;;;11.30;7.85;;;;;;;-145.45;100.00;62759.84;5330766;27;20399;-84
2022/05/31 00:06:23;;;;;;;11.18;7.72;;;;;;;-145.45;100.00;62759.84;5347052;27;20020;-84
2022/05/31 00:08:57;;;;;;;13.18;8.00;;;;;;;-145.45;100.00;62759.84;5327281;27;20553;-85
2022/05/31 00:11:28;;;;;;;13.13;8.50;;;;;;;-145.45;100.00;62759.84;5328079;27;20051;-84
2022/05/31 00:14:00;;;;;;;12.18;8.40;;;;;;;-145.45;100.00;62759.84;5340144;27;20051;-84
2022/05/31 00:16:31;;;;;;;12.15;8.10;;;;;;;-145.45;100.00;62759.84;5343193;27;20028;-83
2022/05/31 00:19:07;;;;;;;9.48;7.80;;;;;;;-145.45;100.00;62759.84;5346627;27;20068;-84
2022/05/31 00:22:06;;;;;;;13.18;7.55;;;;;;;-145.45;100.00;62759.84;5349531;27;20035;-83
2022/05/31 00:24:39;;;;;;;12.43;8.45;;;;;;;-145.45;100.00;62759.84;5348994;27;20173;-84
2022/05/31 00:27:16;;;;;;;11.73;8.25;;;;;;;-145.45;100.00;62759.84;5362300;27;20039;-84
2022/05/31 00:29:47;;;;;;;;;;;;;;;-145.45;100.00;62759.84;5351053;27;20476;-84
2022/05/31 00:32:26;;;;;;;8.23;7.40;;;;;;;-145.45;100.00;62759.84;5347373;27;19961;-84
2022/05/31 00:35:03;;;;;;;15.00;8.00;;;;;;;-145.45;100.00;62759.84;5347476;27;20019;-83
2022/05/31 00:37:37;;;;;;;11.40;8.45;;;;;;;-145.45;100.00;62759.84;5346907;27;20110;-84
2022/05/31 00:40:09;;;;;;;11.90;8.25;;;;;;;-145.45;100.00;62759.84;5344781;27;20051;-84
2022/05/31 00:43:00;;;;;;;7.32;6.15;;;;;;;-145.45;100.00;62759.84;5344558;27;20019;-84
2022/05/31 00:45:43;;;;;;;9.60;7.05;;;;;;;-145.45;100.00;62759.84;5345425;27;20096;-85
2022/05/31 00:48:23;;;;;;;9.93;7.35;;;;;;;-145.45;100.00;62759.84;5343860;27;20020;-85
2022/05/31 00:51:13;;;;;;;13.02;9.55;;;;;;;-145.45;100.00;62759.84;5344258;27;20016;-84
2022/05/31 00:54:04;;;;;;;13.38;8.25;;;;;;;-145.45;100.00;62759.84;5344183;27;20039;-84
2022/05/31 00:56:36;;;;;;;9.30;6.85;;;;;;;-145.45;100.00;62759.84;5347899;27;20077;-84
2022/05/31 00:59:14;;;;;;;13.18;8.57;;;;;;;-145.45;100.00;62759.84;5367091;27;20023;-85
2022/05/31 01:01:51;;;;;;;11.25;8.35;;;;;;;-145.45;100.00;62759.84;5348636;27;20023;-85
2022/05/31 01:04:38;;;;;;;11.05;6.93;;;;;;;-145.45;100.00;62759.84;5347787;27;20031;-85
2022/05/31 01:07:10;;;;;;;;;;;;;;;-145.45;100.00;62759.84;5348811;27;20019;-84
2022/05/31 01:09:45;;;;;;;8.30;7.40;;;;;;;-145.45;100.00;62759.84;5349032;27;19911;-85
2022/05/31 01:12:21;;;;;;;11.25;8.60;;;;;;;-145.45;100.00;62759.84;5348084;27;20051;-84
2022/05/31 01:14:53;;;;;;;15.38;9.63;;;;;;;-145.45;100.00;62759.84;5366514;27;20066;-84
2022/05/31 01:17:29;;;;;;;10.68;7.55;;;;;;;-145.45;100.00;62759.84;5367222;27;20036;-84
2022/05/31 01:20:08;;;;;;;13.48;9.73;;;;;;;-145.45;100.00;62759.84;5367267;27;20121;-84
2022/05/31 01:22:50;;;;;;;13.45;8.02;;;;;;;-145.45;100.00;62759.84;5351793;27;20424;-84
2022/05/31 01:25:42;;;;;;;10.55;9.00;;;;;;;-145.45;100.00;62759.84;5351021;27;20407;-84
2022/05/31 01:28:29;;;;;;;9.80;7.38;;;;;;;-145.45;100.00;62759.84;5351546;27;20027;-84
2022/05/31 01:31:10;;;;;;;13.18;8.68;;;;;;;-145.45;100.00;62759.84;5351687;27;20027;-84
2022/05/31 01:33:56;;;;;;;12.60;8.95;;;;;;;-145.45;100.00;62759.84;5351301;27;20046;-84
2022/05/31 01:36:52;;;;;;;15.45;9.75;;;;;;;-145.45;100.00;62759.84;5351519;27;20027;-85
2022/05/31 01:39:37;;;;;;;13.52;10.13;;;;;;;-145.45;100.00;62759.84;5352495;27;20126;-84
2022/05/31 01:42:26;;;;;;;11.82;8.95;;;;;;;-145.45;100.00;62759.84;5372874;27;20132;-84
2022/05/31 01:45:05;;;;;;;12.70;10.45;;;;;;;-145.45;100.00;62759.84;5352261;27;20050;-85
2022/05/31 01:47:37;;;;;;;14.27;10.77;;;;;;;-145.45;100.00;62759.84;5350838;27;20024;-84
2022/05/31 01:50:13;;;;;;;12.25;9.00;;;;;;;-145.45;100.00;62759.84;5332320;27;20095;-84
2022/05/31 01:52:52;;;;;;;16.00;10.73;;;;;;;-145.45;100.00;62759.84;5348748;27;20012;-84
2022/05/31 01:55:25;;;;;;;14.10;11.30;;;;;;;-145.45;100.00;62759.84;5330890;27;20027;-83
2022/05/31 01:58:00;;;;;;;16.70;12.85;;;;;;;-145.45;100.00;62759.84;5331231;27;20051;-84
2022/05/31 02:00:31;;;;;;;16.60;11.77;;;;;;;-145.45;100.00;62759.84;5330721;27;20032;-83
2022/05/31 02:03:07;;;;;;;15.35;11.88;;;;;;;-145.45;100.00;62759.84;5331237;27;20030;-84
2022/05/31 02:05:51;;;;;;;16.08;12.13;;;;;;;-145.45;100.00;62759.84;5329739;27;20046;-84
2022/05/31 02:08:41;;;;;;;16.42;12.10;;;;;;;-145.45;100.00;62759.84;5329104;27;20340;-84
2022/05/31 02:11:13;;;;;;;16.85;11.68;;;;;;;-145.45;100.00;62759.84;5348110;27;20031;-84
2022/05/31 02:13:47;;;;;;;12.25;11.05;;;;;;;-145.45;100.00;62759.84;5329381;27;20030;-84
2022/05/31 02:16:18;;;;;;;14.63;10.43;;;;;;;-145.45;100.00;62759.84;5347990;27;20378;-84
2022/05/31 02:22:06;;;;;;;14.52;11.32;;;;;;;-145.45;100.00;62759.84;5348088;27;20149;-84
2022/05/31 02:24:39;;;;;;;16.00;8.38;;;;;;;-145.45;100.00;62759.84;5347808;27;20511;-84
2022/05/31 02:27:12;;;;;;;12.10;8.43;;;;;;;-145.45;100.00;62759.84;5346925;27;20139;-85
2022/05/31 02:29:48;;;;;;;10.50;7.97;;;;;;;-145.45;100.00;62759.84;5347103;27;20039;-85
2022/05/31 02:32:20;;;;;;;8.73;7.80;;;;;;;-145.45;100.00;62759.84;5328392;27;20023;-84
2022/05/31 02:34:52;;;;;;;10.73;7.78;;;;;;;-145.45;100.00;62759.84;5343748;27;20020;-84
2022/05/31 02:37:28;;;;;;;10.48;7.78;;;;;;;-145.45;100.00;62759.84;5329721;27;20043;-84
2022/05/31 02:40:08;;;;;;;11.68;8.10;;;;;;;-145.45;100.00;62759.84;5328841;27;20029;-84
2022/05/31 02:42:50;;;;;;;13.80;8.02;;;;;;;-145.45;100.00;62759.84;5328938;27;20558;-84
2022/05/31 02:45:21;;;;;;;11.82;8.07;;;;;;;-145.45;100.00;62759.84;5345447;27;20120;-84
2022/05/31 02:47:57;;;;;;;12.45;8.38;;;;;;;-145.45;100.00;62759.84;5348014;27;20583;-84
2022/05/31 02:50:29;;;;;;;9.90;7.50;;;;;;;-145.45;100.00;62759.84;5347107;27;20024;-84
2022/05/31 02:53:06;;;;;;;8.23;6.10;;;;;;;-145.45;100.00;62759.84;5345814;27;20317;-84
2022/05/31 02:55:40;;;;;;;10.77;8.23;;;;;;;-145.45;100.00;62759.84;5328206;27;20092;-84
2022/05/31 02:58:12;;;;;;;12.07;7.88;;;;;;;-145.45;100.00;62759.84;5348222;27;20015;-84
2022/05/31 03:00:52;;;;;;;8.77;7.30;;;;;;;-145.45;100.00;62759.84;5349907;27;20027;-84
2022/05/31 03:03:32;;;;;;;9.50;7.85;;;;;;;-145.45;100.00;62759.84;5348629;27;20039;-84
2022/05/31 03:06:06;;;;;;;8.93;6.68;;;;;;;-145.45;100.00;62759.84;5349879;27;20015;-84
2022/05/31 03:08:41;;;;;;;8.48;7.03;;;;;;;-145.45;100.00;62759.84;5349727;27;20846;-85
2022/05/31 03:11:23;;;;;;;8.20;6.68;;;;;;;-145.45;100.00;62759.84;5368384;27;20026;-84
2022/05/31 03:14:07;;;;;;;7.63;6.72;;;;;;;-145.45;100.00;62759.84;5331544;27;20035;-85
2022/05/31 03:16:44;;;;;;;10.98;7.70;;;;;;;-145.45;100.00;62759.84;5349357;27;20027;-84
2022/05/31 03:19:27;;;;;;;10.98;8.00;;;;;;;-145.45;100.00;62759.84;5350215;27;20486;-85
2022/05/31 03:22:11;;;;;;;10.88;7.85;;;;;;;-145.45;100.00;62759.84;5370059;27;20030;-84
2022/05/31 03:24:47;;;;;;;11.82;7.82;;;;;;;-145.45;100.00;62759.84;5344642;27;20024;-84
2022/05/31 03:27:19;;;;;;;9.27;7.22;;;;;;;-145.45;100.00;62759.84;5344552;27;20414;-84
2022/05/31 03:29:56;;;;;;;10.02;7.05;;;;;;;-145.45;100.00;62759.84;5344752;27;20091;-84
2022/05/31 03:32:30;;;;;;;9.23;7.47;;;;;;;-145.45;100.00;62759.84;5346357;27;20031;-84
2022/05/31 03:35:09;;;;;;;11.82;7.85;;;;;;;-145.45;100.00;62759.84;5344141;27;20030;-85
2022/05/31 03:37:40;;;;;;;9.15;7.88;;;;;;;-145.45;100.00;62759.84;5344524;27;20027;-84
2022/05/31 03:40:56;;;;;;;9.75;8.00;;;;;;;-145.45;100.00;62759.84;5345214;27;20085;-84
2022/05/31 03:43:12;;;;;;;11.20;7.57;;;;;;;-145.45;100.00;62759.84;5345883;27;20042;-84
2022/05/31 03:45:47;;;;;;;12.52;7.72;;;;;;;-145.45;100.00;62759.84;5349051;27;20130;-85
2022/05/31 03:48:24;;;;;;;10.68;7.93;;;;;;;-145.45;100.00;62759.84;5349029;27;20051;-85
2022/05/31 03:51:02;;;;;;;10.07;7.80;;;;;;;-145.45;100.00;62759.84;5368067;27;20106;-84
2022/05/31 03:53:36;;;;;;;9.30;7.55;;;;;;;-145.45;100.00;62759.84;5367344;27;20031;-85
2022/05/31 03:56:11;;;;;;;11.13;7.10;;;;;;;-145.45;100.00;62759.84;5367826;27;20146;-84
2022/05/31 03:58:43;;;;;;;10.27;7.75;;;;;;;-145.45;100.00;62759.84;5367620;27;20019;-84
2022/05/31 04:01:34;;;;;;;12.45;7.28;;;;;;;-145.45;100.00;62759.84;5367322;27;20015;-84
2022/05/31 04:04:06;;;;;;;8.68;7.32;;;;;;;-145.45;100.00;62759.84;5348564;27;20027;-84
2022/05/31 04:06:40;;;;;;;9.20;7.90;;;;;;;-145.45;100.00;62759.84;5349397;27;20027;-84
2022/05/31 04:09:15;;;;;;;9.02;7.35;;;;;;;-145.45;100.00;62759.84;5348056;27;20023;-84
2022/05/31 04:11:57;;;;;;;9.73;6.97;;;;;;;-145.45;100.00;62759.84;5367863;27;20110;-84
2022/05/31 04:14:31;;;;;;;12.45;8.00;;;;;;;-145.45;100.00;62759.84;5365264;27;20023;-84
2022/05/31 04:17:03;;;;;;;13.13;7.88;;;;;;;-145.45;100.00;62759.84;5365719;27;20644;-84
2022/05/31 04:19:35;;;;;;;11.55;8.15;;;;;;;-145.45;100.00;62759.84;5348645;27;20058;-84
2022/05/31 04:22:12;;;;;;;11.82;7.80;;;;;;;-145.45;100.00;62759.84;5348928;27;20113;-84
2022/05/31 04:24:54;;;;;;;8.43;7.40;;;;;;;-145.45;100.00;62759.84;5365549;27;20062;-84
2022/05/31 04:27:28;;;;;;;14.02;8.15;;;;;;;-145.45;100.00;62759.84;5348794;27;20016;-85
2022/05/31 04:30:00;;;;;;;12.95;7.30;;;;;;;-145.45;100.00;62759.84;5348104;27;20104;-84
2022/05/31 04:32:34;;;;;;;14.25;7.90;;;;;;;-145.45;100.00;62759.84;5366485;27;20023;-84
2022/05/31 04:35:09;;;;;;;9.95;7.15;;;;;;;-145.45;100.00;62759.84;5348691;27;20106;-85
2022/05/31 04:37:41;;;;;;;14.20;8.32;;;;;;;-145.45;100.00;62759.84;5364999;27;20140;-84
2022/05/31 04:40:13;;;;;;;12.75;7.95;;;;;;;-145.45;100.00;62759.84;5349157;27;20023;-84
2022/05/31 04:42:47;;;;;;;9.73;7.88;;;;;;;-145.45;100.00;62759.84;5366277;27;20075;-84
2022/05/31 04:45:22;;;;;;;17.27;7.57;;;;;;;-145.45;100.00;62759.84;5367680;27;20412;-84
2022/05/31 04:47:59;;;;;;;12.88;8.35;;;;;;;-145.45;100.00;62759.84;5347415;27;20027;-84
2022/05/31 04:50:31;;;;;;;12.85;8.10;;;;;;;-145.45;100.00;62759.84;5367530;27;20031;-84
2022/05/31 04:53:08;;;;;;;9.25;7.88;;;;;;;-145.45;100.00;62759.84;5348852;27;20440;-84
2022/05/31 04:55:40;;;;;;;13.70;8.80;;;;;;;-145.45;100.00;62759.84;5348941;27;20023;-84
2022/05/31 04:58:11;;;;;;;13.90;8.88;;;;;;;-145.45;100.00;62759.84;5352100;27;20114;-84
2022/05/31 05:00:47;;;;;;;12.77;8.30;;;;;;;-145.45;100.00;62759.84;5352611;27;20026;-84
2022/05/31 05:03:19;;;;;;;11.35;8.90;;;;;;;-145.45;100.00;62759.84;5370768;27;20110;-84
2022/05/31 05:05:53;;;;;;;10.98;8.68;;;;;;;-145.45;100.00;62759.84;5369527;27;20083;-84
2022/05/31 05:08:28;;;;;;;12.05;8.65;;;;;;;-145.45;100.00;62759.84;5370729;27;20511;-84
2022/05/31 05:11:01;;;;;;;10.80;8.15;;;;;;;-145.45;100.00;62759.84;5352277;27;20069;-85
2022/05/31 05:13:38;;;;;;;16.80;9.00;;;;;;;-145.45;100.00;62759.84;5330380;27;20448;-84
2022/05/31 05:16:19;;;;;;;12.70;8.70;;;;;;;-145.45;100.00;62759.84;5330463;27;20051;-84
2022/05/31 05:18:57;;;;;;;11.90;8.30;;;;;;;-145.45;100.00;62759.84;5308786;28;20087;-84
2022/05/31 05:21:34;;;;;;;9.27;7.93;;;;;;;-145.45;100.00;62759.84;5325476;28;20043;-84
2022/05/31 05:24:12;;;;;;;9.20;8.30;;;;;;;-145.45;100.00;62759.84;5326107;28;20028;-84
2022/05/31 05:26:49;;;;;;;10.98;7.82;;;;;;;-145.45;100.00;62759.84;5327496;28;20032;-84
2022/05/31 05:32:24;;;;;;;14.50;9.35;;;;;;;-145.45;100.00;62759.84;5327653;28;20099;-84
2022/05/31 05:34:58;;;;;;;13.13;9.00;;;;;;;-145.45;100.00;62759.84;5325662;28;20031;-85
2022/05/31 05:37:36;;;;;;;10.57;9.45;;;;;;;-145.45;100.00;62759.84;5325826;28;20150;-84
2022/05/31 05:40:11;;;;;;;11.65;8.55;;;;;;;-145.45;100.00;62759.84;5325329;28;20040;-84
2022/05/31 05:42:43;;;;;;;14.05;9.88;;;;;;;-145.45;100.00;62759.84;5325691;28;20476;-84
2022/05/31 05:45:18;;;;;;;12.02;9.30;;;;;;;-145.45;100.00;62759.84;5325661;27;20086;-85
2022/05/31 05:47:57;;;;;;;14.93;8.15;;;;;;;-145.45;100.00;62759.84;5349150;27;20104;-84
2022/05/31 05:50:41;;;;;;;13.45;9.20;;;;;;;-145.45;100.00;62759.84;5364260;27;20043;-85
2022/05/31 05:53:15;;;;;;;11.57;8.88;;;;;;;-145.45;100.00;62759.84;5348386;27;20371;-84
2022/05/31 05:55:49;;;;;;;12.60;7.82;;;;;;;-145.45;100.00;62759.84;5326984;27;20503;-84
2022/05/31 05:58:24;;;;;;;13.13;9.32;;;;;;;-145.45;100.00;62759.84;5348524;27;20395;-84
2022/05/31 06:01:31;;;;;;;13.77;8.88;;;;;;;-145.45;100.00;62759.84;5346663;27;20019;-84
2022/05/31 06:04:31;;;;;;;11.32;9.13;;;;;;;-145.45;100.00;62759.84;5314112;27;20372;-84
2022/05/31 06:07:30;;;;;;;13.15;9.18;;;;;;;-145.45;100.00;62759.84;5345810;27;20030;-84
2022/05/31 06:10:27;;;;;;;11.13;9.88;;;;;;;-145.45;100.00;62759.84;5346151;27;20036;-84
2022/05/31 06:13:18;;;;;;;11.20;9.57;;;;;;;-145.45;100.00;62759.84;5348268;27;20019;-84
2022/05/31 06:16:05;;;;;;;;;;;;;;;;;;;;;
2022/05/31 06:18:51;;;;;;;;;;;;;;;-145.45;100.00;62759.84;5364170;27;40185;-85
2022/05/31 06:21:47;;;;;;;;;;;;;;;;;;;;;
2022/05/31 06:25:08;;;;;;;11.77;9.18;;;;;;;-145.45;100.00;62759.84;5350682;27;40163;-85
2022/05/31 06:27:52;;;;;;;10.32;9.23;;;;;;;-145.45;100.00;62759.84;5268379;27;20083;-85
2022/05/31 06:30:35;;;;;;;15.10;9.95;;;;;;;-145.45;100.00;62759.84;5349723;27;20031;-85
2022/05/31 06:36:46;;;;;;;12.38;8.88;;;;;;;-145.45;100.00;62759.84;5369319;27;20095;-85
2022/05/31 06:46:10;;;;;;;;;;;;;;;;;;;;;
2022/05/31 06:49:26;;;;;;;13.95;8.48;;;;;;;-145.45;100.00;62759.84;5301013;28;41444;-85
2022/05/31 06:58:34;;;;;;;11.27;7.35;;;;;;;-145.45;100.00;62759.84;5369188;27;20061;-84
2022/05/31 07:01:16;;;;;;;13.32;7.85;;;;;;;-145.45;100.00;62759.84;5368384;27;20024;-85
2022/05/31 07:04:09;;;;;;;13.77;7.85;;;;;;;-145.45;100.00;62759.84;5367617;27;20138;-84
2022/05/31 07:07:21;;;;;;;9.70;7.10;;;;;;;-145.45;100.00;62759.84;5334765;27;20423;-84
2022/05/31 07:10:06;;;;;;;7.72;6.30;;;;;;;-145.45;100.00;62759.84;5339422;27;20031;-84
2022/05/31 07:12:42;;;;;;;9.20;6.45;;;;;;;-145.45;100.00;62759.84;5349421;27;20031;-85
2022/05/31 07:15:25;;;;;;;8.15;6.00;;;;;;;-145.45;100.00;62759.84;5367874;27;20027;-85
2022/05/31 07:18:14;;;;;;;9.55;5.57;;;;;;;-145.45;100.00;62759.84;5321241;27;20139;-84
2022/05/31 07:24:24;;;;;;;10.05;5.53;;;;;;;-145.45;100.00;62759.84;5307234;28;20110;-84
2022/05/31 07:27:20;;;;;;;8.60;5.30;;;;;;;-145.45;100.00;62759.84;5301314;28;20032;-84
2022/05/31 07:29:58;;;;;;;7.70;5.70;;;;;;;-145.45;100.00;62759.84;5301441;28;20024;-84
2022/05/31 07:32:38;;;;;;;7.60;5.03;;;;;;;-145.45;100.00;62759.84;5284219;28;20192;-84
2022/05/31 07:35:30;;;;;;;8.38;4.95;;;;;;;-145.45;100.00;62759.84;5283756;28;20035;-85
2022/05/31 07:38:30;;;;;;;7.68;5.35;;;;;;;-145.45;100.00;62759.84;5283407;28;20120;-83
2022/05/31 07:41:12;;;;;;;7.88;5.15;;;;;;;-145.45;100.00;62759.84;5284007;28;20455;-85
2022/05/31 07:43:55;;;;;;;7.30;5.32;;;;;;;-145.45;100.00;62759.84;5282678;28;20045;-84
2022/05/31 07:46:36;;;;;;;8.13;5.15;;;;;;;-145.45;100.00;62759.84;5291079;28;20075;-84
2022/05/31 07:49:16;;;;;;;6.25;5.00;;;;;;;-145.45;100.00;62759.84;5304773;28;20488;-84
2022/05/31 07:52:14;;;;;;;;;;;;;;;;;;;;;
2022/05/31 08:01:14;;;;;;;7.15;4.20;;;;;;;-145.45;100.00;62759.84;5325912;28;20024;-84
2022/05/31 08:04:02;;;;;;;5.63;3.60;;;;;;;-145.45;100.00;62759.84;5325451;28;20392;-84
2022/05/31 08:06:50;;;;;;;7.57;4.15;;;;;;;-145.45;100.00;62759.84;5324190;27;20036;-84
2022/05/31 08:09:34;;;;;;;5.50;3.47;;;;;;;-145.45;100.00;62759.84;5322996;28;20115;-85
2022/05/31 08:15:38;;;;;;;6.43;4.35;;;;;;;-145.45;100.00;62759.84;5323766;27;20035;-84
2022/05/31 08:18:33;;;;;;;8.90;4.28;;;;;;;-145.45;100.00;62759.84;5340158;27;20085;-85
2022/05/31 08:21:26;;;;;;;6.20;3.92;;;;;;;-145.45;100.00;62759.84;5329722;27;20477;-84
2022/05/31 08:24:54;;;;;;;;;;;;;;;;;;;;;
2022/05/31 08:27:43;;;;;;;5.60;4.22;;;;;;;-145.45;100.00;62759.84;5325373;27;41473;-85
2022/05/31 08:31:17;;;;;;;;;;;;;;;;;;;;;
2022/05/31 08:34:09;;;;;;;7.10;4.13;;;;;;;-145.45;100.00;62759.84;5352181;27;42382;-84
2022/05/31 08:37:16;;;;;;;11.43;5.03;;;;;;;-145.45;100.00;62759.84;5333486;27;20123;-84
2022/05/31 08:40:12;;;;;;;4.75;4.07;;;;;;;-145.45;100.00;62759.84;5266067;28;20032;-83
2022/05/31 08:43:21;;;;;;;4.88;4.30;;;;;;;-145.45;100.00;62759.84;5258859;28;20095;-84
2022/05/31 08:46:33;;;;;;;6.85;4.47;;;;;;;-145.45;100.00;62759.84;5351928;27;20539;-84
2022/05/31 08:53:26;;;;;;;5.72;3.92;;;;;;;-145.45;100.00;62759.84;5352647;27;20460;-84
2022/05/31 08:59:59;;;;;;;6.28;4.05;;;;;;;-145.45;100.00;62759.84;5352706;27;20023;-85
2022/05/31 09:03:07;;;;;;;5.13;3.38;;;;;;;-145.45;100.00;62759.84;5332954;27;20112;-84
2022/05/31 09:06:36;;;;;;;6.68;3.70;;;;;;;-145.45;100.00;62759.84;5332840;27;20042;-84
2022/05/31 09:09:42;;;;;;;6.20;3.97;;;;;;;-145.45;100.00;62759.84;5291715;27;20443;-85
2022/05/31 09:12:54;;;;;;;5.60;4.20;;;;;;;-145.45;100.00;62759.84;5350691;27;20028;-84
2022/05/31 09:16:00;;;;;;;4.38;3.97;;;;;;;-145.45;100.00;62759.84;5351585;27;20035;-85
2022/05/31 09:18:52;;;;;;;5.00;4.10;;;;;;;-145.45;100.00;62759.84;5344592;27;20400;-85
2022/05/31 09:22:00;;;;;;;5.45;3.70;;;;;;;-145.45;100.00;62759.84;5350612;27;20092;-85
2022/05/31 09:25:08;;;;;;;5.32;4.30;;;;;;;-145.45;100.00;62759.84;5350409;27;20391;-85
2022/05/31 09:28:21;;;;;;;5.60;3.42;;;;;;;-145.45;100.00;62759.84;5350426;27;20067;-85
2022/05/31 09:35:14;;;;;;;4.97;3.10;;;;;;;-145.45;100.00;62759.84;5341521;27;20059;-85
2022/05/31 09:38:25;;;;;;;4.50;3.70;;;;;;;-145.45;100.00;62759.84;5350043;27;20031;-85
2022/05/31 09:41:32;;;;;;;4.10;3.70;;;;;;;-145.45;100.00;62759.84;5349337;27;20032;-85
2022/05/31 09:44:45;;;;;;;3.83;3.45;;;;;;;-145.45;100.00;62759.84;5347892;27;20032;-84
2022/05/31 09:50:45;;;;;;;5.05;3.10;;;;;;;-145.45;100.00;62759.84;5348245;27;20028;-85
2022/05/31 09:59:22;;;;;;;;;;;;;;;-145.45;100.00;62759.84;5348690;27;20098;-84
2022/05/31 10:02:15;;;;;;;4.45;3.25;;;;;;;-145.45;100.00;62759.84;5346619;27;19961;-84
2022/05/31 10:05:12;;;;;;;4.85;3.28;;;;;;;-145.45;100.00;62759.84;5328915;27;20035;-84
2022/05/31 10:07:55;;;;;;;4.43;3.25;;;;;;;-145.45;100.00;62759.84;5345923;27;20781;-84
2022/05/31 10:10:39;;;;;;;3.85;3.33;;;;;;;-145.45;100.00;62759.84;5338894;27;20414;-83
2022/05/31 10:13:11;;;;;;;6.38;3.53;;;;;;;-145.45;100.00;62759.84;5346580;27;20031;-83
2022/05/31 10:15:49;;;;;;;5.35;4.10;;;;;;;-145.45;100.00;62759.84;5346449;27;20055;-83
2022/05/31 10:18:31;;;;;;;5.63;4.60;;;;;;;-145.45;100.00;62759.84;5329005;27;20030;-83
2022/05/31 10:21:11;;;;;;;4.90;4.40;;;;;;;-145.45;100.00;62759.84;5342999;27;20017;-83
2022/05/31 10:23:53;;;;;;;5.03;4.18;;;;;;;-145.45;100.00;62759.84;5349711;27;20034;-83
2022/05/31 10:26:32;;;;;;;6.90;4.80;;;;;;;-145.45;100.00;62759.84;5369512;27;20108;-83
2022/05/31 10:29:15;;;;;;;7.53;4.80;;;;;;;-145.45;100.00;62759.84;5368380;27;20055;-83
2022/05/31 10:31:48;;;;;;;7.28;4.63;;;;;;;-145.45;100.00;62759.84;5369361;27;20102;-83
2022/05/31 10:34:44;;;;;;;9.80;4.90;;;;;;;-145.45;100.00;62759.84;5369639;27;20098;-83
2022/05/31 10:37:25;;;;;;;10.80;4.90;;;;;;;-145.45;100.00;62759.84;5350819;27;20514;-83
2022/05/31 10:40:06;;;;;;;8.30;5.03;;;;;;;-145.45;100.00;62759.84;5350082;27;20015;-83
2022/05/31 10:42:46;;;;;;;5.05;4.55;;;;;;;-145.45;100.00;62759.84;5350157;27;20091;-83
2022/05/31 10:45:22;;;;;;;7.10;4.97;;;;;;;-145.45;100.00;62759.84;5348793;27;20620;-83
2022/05/31 10:47:56;;;;;;;7.25;4.80;;;;;;;-145.45;100.00;62759.84;5369770;27;20023;-83
2022/05/31 10:51:04;;;;;;;5.28;4.72;;;;;;;-145.45;100.00;62759.84;5350194;27;20088;-83
2022/05/31 10:53:48;;;;;;;6.28;4.63;;;;;;;-145.45;100.00;62759.84;5336192;27;20087;-83
2022/05/31 10:56:41;;;;;;;7.32;6.03;;;;;;;-145.45;100.00;62759.84;5368566;27;20019;-83
2022/05/31 10:59:21;;;;;;;8.13;5.45;;;;;;;-145.45;100.00;62759.84;5349146;27;20420;-83
2022/05/31 11:02:30;;;;;;;6.50;5.07;;;;;;;-145.45;100.00;62759.84;5368702;27;20395;-83
2022/05/31 11:05:16;;;;;;;10.07;6.10;;;;;;;-145.45;100.00;62759.84;5368500;27;20055;-83
2022/05/31 11:11:36;;;;;;;7.53;5.85;;;;;;;-145.45;100.00;62759.84;5310444;27;20527;-84
2022/05/31 11:14:53;;;;;;;6.22;5.60;;;;;;;-145.45;100.00;62759.84;5327793;27;20408;-84
2022/05/31 11:17:40;;;;;;;7.13;5.53;;;;;;;-145.45;100.00;62759.84;5347660;27;20020;-84
2022/05/31 11:20:15;;;;;;;6.90;5.25;;;;;;;-145.45;100.00;62759.84;5346653;27;20357;-84
2022/05/31 11:23:13;;;;;;;9.40;5.75;;;;;;;-145.45;100.00;62759.84;5328402;27;20024;-84
2022/05/31 11:26:05;;;;;;;7.15;5.80;;;;;;;-145.45;100.00;62759.84;5327918;27;20086;-84
2022/05/31 11:29:09;;;;;;;6.80;5.72;;;;;;;-145.45;100.00;62759.84;5346436;27;20528;-84
2022/05/31 11:32:09;;;;;;;6.28;5.63;;;;;;;-145.45;100.00;62759.84;5328000;27;20499;-84
2022/05/31 11:34:44;;;;;;;6.88;5.80;;;;;;;-145.45;100.00;62759.84;5327826;27;20016;-84
2022/05/31 11:37:28;;;;;;;6.70;5.88;;;;;;;-145.45;100.00;62759.84;5328279;27;20028;-84
2022/05/31 11:40:04;;;;;;;8.15;6.05;;;;;;;-145.45;100.00;62759.84;5327217;27;20509;-83
2022/05/31 11:43:00;;;;;;;10.70;6.05;;;;;;;-145.45;100.00;62759.84;5327937;27;20028;-84
2022/05/31 11:46:07;;;;;;;6.05;4.25;;;;;;;-145.45;100.00;62759.84;5327025;27;20028;-84
2022/05/31 11:48:50;;;;;;;8.65;4.97;;;;;;;-145.45;100.00;62759.84;5327097;27;20016;-84
2022/05/31 11:51:43;;;;;;;6.65;4.80;;;;;;;-145.45;100.00;62759.84;5327530;27;20534;-84
2022/05/31 11:54:39;;;;;;;5.55;4.78;;;;;;;-145.45;100.00;62759.84;5327415;27;20448;-83
2022/05/31 11:57:29;;;;;;;3.85;3.30;;;;;;;-145.45;100.00;62759.84;5346438;27;20019;-83
2022/05/31 12:00:03;;;;;;;4.18;2.20;;;;;;;-145.45;100.00;62759.84;5327057;27;20468;-83
2022/05/31 12:02:53;;;;;;;4.38;2.17;;;;;;;-145.45;100.00;62759.84;5328106;27;20392;-83
2022/05/31 12:05:30;;;;;;;3.95;1.75;;;;;;;-145.45;100.00;62759.84;5343062;27;20035;-83
2022/05/31 12:08:10;;;;;;;10.88;2.58;;;;;;;-145.45;100.00;62759.84;5345993;27;20072;-83
2022/05/31 12:10:47;;;;;;;5.60;1.95;;;;;;;-145.45;100.00;62759.84;5345994;27;20048;-83
2022/05/31 12:13:20;;;;;;;1.98;1.58;;;;;;;-145.45;100.00;62759.84;5326764;27;20065;-84
2022/05/31 12:15:54;;;;;;;2.17;1.77;;;;;;;-145.45;100.00;62759.84;5326872;27;20020;-84
2022/05/31 12:18:35;;;;;;;3.20;2.40;;;;;;;-145.45;100.00;62759.84;5326966;27;20028;-83
2022/05/31 12:21:23;;;;;;;5.53;3.13;;;;;;;-145.45;100.00;62759.84;5341593;27;20034;-83
2022/05/31 12:24:10;;;;;;;4.50;2.90;;;;;;;-145.45;100.00;62759.84;5348033;27;20012;-84
2022/05/31 12:26:53;;;;;;;5.50;2.78;;;;;;;-145.45;100.00;62759.84;5348326;27;20114;-85
2022/05/31 12:29:32;;;;;;;5.82;2.90;;;;;;;-145.45;100.00;62759.84;5348221;27;20030;-84
2022/05/31 12:32:29;;;;;;;4.97;3.38;;;;;;;-145.45;100.00;62759.84;5348015;27;20023;-84
2022/05/31 12:35:03;;;;;;;3.10;2.53;;;;;;;-145.45;100.00;62759.84;5367447;27;20020;-83
2022/05/31 12:38:07;;;;;;;2.85;2.30;;;;;;;-145.45;100.00;62759.84;5348731;27;20092;-84
2022/05/31 12:40:47;;;;;;;5.32;3.20;;;;;;;-145.45;100.00;62759.84;5347993;27;20031;-83
2022/05/31 12:43:43;;;;;;;3.97;3.20;;;;;;;-145.45;100.00;62759.84;5347866;27;20038;-83
2022/05/31 12:46:27;;;;;;;3.28;2.70;;;;;;;-145.45;100.00;62759.84;5367305;27;20031;-83
2022/05/31 12:49:02;;;;;;;3.35;2.50;;;;;;;-145.45;100.00;62759.84;5366198;27;20027;-83
2022/05/31 12:51:33;;;;;;;4.45;3.38;;;;;;;-145.45;100.00;62759.84;5366883;27;20028;-83
2022/05/31 12:54:07;;;;;;;7.75;4.15;;;;;;;-145.45;100.00;62759.84;5366753;27;20502;-83
2022/05/31 12:56:53;;;;;;;3.95;3.15;;;;;;;-145.45;100.00;62759.84;5366745;27;20069;-83
2022/05/31 12:59:43;;;;;;;4.47;4.00;;;;;;;-145.45;100.00;62759.84;5347179;27;20364;-83
2022/05/31 13:02:34;;;;;;;6.43;3.58;;;;;;;-145.45;100.00;62759.84;5348384;27;20098;-83
2022/05/31 13:05:31;;;;;;;4.97;4.07;;;;;;;-145.45;100.00;62759.84;5348162;27;20029;-83
2022/05/31 13:08:20;;;;;;;5.80;3.78;;;;;;;-145.45;100.00;62759.84;5347086;27;20690;-83
2022/05/31 13:20:56;;;;;;;7.97;5.70;;;;;;;-145.45;100.00;62759.84;5348319;27;20078;-84
2022/05/31 13:24:37;;;;;;;10.20;5.80;;;;;;;-145.45;100.00;62759.84;5347132;27;20388;-84
2022/05/31 13:28:18;;;;;;;18.88;8.43;;;;;;;-145.45;100.00;62759.84;5261178;28;20040;-86
2022/05/31 13:31:38;;;;;;;;;;;;;;;;;;;;;
2022/05/31 13:34:53;;;;;;;;;;;;;;;;;;;;;
2022/05/31 13:37:38;;;;;;;9.70;6.18;;;;;;;-145.45;100.00;62759.84;5199028;28;39898;-85
2022/05/31 13:40:39;;;;;;;8.02;6.43;;;;;;;-145.45;100.00;62759.84;5198833;28;20026;-85
2022/05/31 13:51:10;;;;;;;8.80;6.05;;;;;;;-145.45;100.00;62759.84;5188131;28;20459;-84
2022/05/31 13:54:04;;;;;;;14.88;6.78;;;;;;;-145.45;100.00;62759.84;5156827;28;20036;-85